Time;durP1;ratioP1;P1;durP2;ratioP2;P2;SDS_P1;SDS_P2;PMS_P1;PMS_P2;Temp;Humidity;BMP_temperature;BMP_pressure;BME280_temperature;BME280_humidity;BME280_pressure;Samples;Min_cycle;Max_cycle;Signal;HPM_P1;HPM_P2
2024/01/12 00:00:20;;;;;;;173.60;16.70;;;0.30;99.90;;;;;;5041685;28;20026;-72
2024/01/12 00:02:45;;;;;;;100.45;16.20;;;0.30;99.90;;;;;;5040194;28;20022;-70
2024/01/12 00:05:14;;;;;;;166.48;18.10;;;0.30;99.90;;;;;;5042102;28;20042;-69
2024/01/12 00:07:39;;;;;;;242.40;18.50;;;0.50;99.90;;;;;;5040983;28;20159;-68
2024/01/12 00:10:05;;;;;;;113.45;13.05;;;0.30;99.90;;;;;;5039823;28;20025;-72
2024/01/12 00:12:31;;;;;;;251.32;19.45;;;0.30;99.90;;;;;;5040121;28;20029;-70
2024/01/12 00:14:57;;;;;;;203.88;15.27;;;0.30;99.90;;;;;;5041667;28;20022;-69
2024/01/12 00:17:24;;;;;;;159.02;14.52;;;0.30;99.90;;;;;;5041418;28;20030;-68
2024/01/12 00:19:49;;;;;;;218.65;15.52;;;0.30;99.90;;;;;;5040985;28;20026;-71
2024/01/12 00:22:15;;;;;;;225.43;18.65;;;0.30;99.90;;;;;;5040526;28;20400;-70
2024/01/12 00:24:40;;;;;;;120.05;14.77;;;0.30;99.90;;;;;;5039512;28;20018;-72
2024/01/12 00:27:06;;;;;;;126.55;15.13;;;0.30;99.90;;;;;;5041671;28;20030;-70
2024/01/12 00:29:31;;;;;;;200.65;15.35;;;0.30;99.90;;;;;;5040035;28;20463;-70
2024/01/12 00:31:57;;;;;;;173.65;15.63;;;0.30;99.90;;;;;;5041222;28;20028;-69
2024/01/12 00:34:23;;;;;;;197.48;16.45;;;0.30;99.90;;;;;;5045304;28;20044;-69
2024/01/12 00:36:49;;;;;;;155.75;15.57;;;0.30;99.90;;;;;;5047456;28;20108;-70
2024/01/12 00:39:18;;;;;;;172.10;15.45;;;0.30;99.90;;;;;;5047866;28;20090;-70
2024/01/12 00:41:44;;;;;;;187.55;16.75;;;0.30;99.90;;;;;;5047888;28;20075;-70
2024/01/12 00:44:09;;;;;;;206.43;17.50;;;0.30;99.90;;;;;;5046521;28;20069;-71
2024/01/12 00:46:36;;;;;;;224.15;17.95;;;0.40;99.90;;;;;;5047559;28;20063;-72
2024/01/12 00:49:01;;;;;;;229.13;17.75;;;0.40;99.90;;;;;;5047461;28;20025;-72
2024/01/12 00:51:27;;;;;;;214.90;20.88;;;0.40;99.90;;;;;;5047628;28;20030;-71
2024/01/12 00:53:55;;;;;;;208.88;18.38;;;0.40;99.90;;;;;;5047803;28;20049;-73
2024/01/12 00:56:21;;;;;;;178.18;18.60;;;0.40;99.90;;;;;;5047740;28;20482;-70
2024/01/12 00:58:46;;;;;;;122.57;16.80;;;0.50;99.90;;;;;;5047623;28;20052;-71
2024/01/12 01:01:12;;;;;;;213.75;19.38;;;0.50;99.90;;;;;;5047905;28;20060;-69
2024/01/12 01:03:37;;;;;;;172.25;21.27;;;0.50;99.90;;;;;;5047437;28;20045;-70
2024/01/12 01:06:04;;;;;;;143.82;16.55;;;0.50;99.90;;;;;;5047020;28;20036;-72
2024/01/12 01:08:29;;;;;;;190.77;18.95;;;0.50;99.90;;;;;;5047512;28;20179;-70
2024/01/12 01:10:55;;;;;;;130.27;15.52;;;0.50;99.90;;;;;;5047767;28;20490;-70
2024/01/12 01:13:21;;;;;;;142.50;17.05;;;0.50;99.90;;;;;;5047344;28;20055;-74
2024/01/12 01:15:47;;;;;;;128.30;16.45;;;0.50;99.90;;;;;;5047306;28;20079;-71
2024/01/12 01:18:12;;;;;;;121.38;17.05;;;0.50;99.90;;;;;;5047756;28;20027;-71
2024/01/12 01:20:38;;;;;;;137.73;15.63;;;0.50;99.90;;;;;;5047105;28;20049;-70
2024/01/12 01:23:05;;;;;;;105.25;15.70;;;0.50;99.90;;;;;;5047488;28;20033;-72
2024/01/12 01:25:31;;;;;;;86.72;14.75;;;0.50;99.90;;;;;;5047452;28;20024;-71
2024/01/12 01:27:56;;;;;;;98.38;16.05;;;0.50;99.90;;;;;;5046094;28;20025;-71
2024/01/12 01:30:22;;;;;;;85.93;14.95;;;0.50;99.90;;;;;;5047629;28;20049;-72
2024/01/12 01:32:48;;;;;;;86.68;15.82;;;0.50;99.90;;;;;;5045871;28;20033;-72
2024/01/12 01:35:15;;;;;;;113.55;14.55;;;0.50;99.90;;;;;;5047441;28;20040;-70
2024/01/12 01:37:40;;;;;;;106.97;15.82;;;0.50;99.90;;;;;;5047388;28;20022;-71
2024/01/12 01:40:07;;;;;;;124.32;16.48;;;0.50;99.90;;;;;;5046031;28;20018;-71
2024/01/12 01:42:36;;;;;;;119.80;17.20;;;0.40;99.90;;;;;;5047121;28;20036;-71
2024/01/12 01:45:02;;;;;;;99.88;16.15;;;0.40;99.90;;;;;;5043407;28;20455;-70
2024/01/12 01:47:28;;;;;;;109.57;17.33;;;0.40;99.90;;;;;;5042791;28;20040;-69
2024/01/12 01:49:55;;;;;;;99.72;17.13;;;0.30;99.90;;;;;;5043606;28;20112;-73
2024/01/12 01:52:23;;;;;;;90.20;16.58;;;0.30;99.90;;;;;;5044239;28;20065;-70
2024/01/12 01:54:49;;;;;;;61.47;16.55;;;0.20;99.90;;;;;;5043823;28;20027;-73
2024/01/12 01:57:15;;;;;;;65.50;17.02;;;0.20;99.90;;;;;;5044063;28;20048;-70
2024/01/12 01:59:44;;;;;;;51.78;16.02;;;0.10;99.90;;;;;;5044125;28;20034;-70
2024/01/12 02:02:11;;;;;;;54.53;16.77;;;0.10;99.90;;;;;;5044040;28;20037;-71
2024/01/12 02:04:37;;;;;;;101.28;17.75;;;0.10;99.90;;;;;;5043629;28;20041;-71
2024/01/12 02:07:03;;;;;;;102.30;17.65;;;0.10;99.90;;;;;;5044103;28;20033;-71
2024/01/12 02:09:32;;;;;;;54.75;17.77;;;0.10;99.90;;;;;;5043119;28;20025;-72
2024/01/12 02:11:58;;;;;;;73.63;17.77;;;0.20;99.90;;;;;;5042267;28;20027;-71
2024/01/12 02:14:24;;;;;;;74.63;17.08;;;0.20;99.90;;;;;;5043671;28;20053;-71
2024/01/12 02:16:51;;;;;;;101.00;18.48;;;0.20;99.90;;;;;;5043499;28;20478;-72
2024/01/12 02:19:16;;;;;;;66.43;16.90;;;0.20;99.90;;;;;;5042219;28;20021;-71
2024/01/12 02:21:42;;;;;;;54.25;17.17;;;0.20;99.90;;;;;;5043835;28;20510;-70
2024/01/12 02:24:08;;;;;;;67.50;18.27;;;0.20;99.90;;;;;;5042047;28;20021;-71
2024/01/12 02:26:33;;;;;;;53.45;18.13;;;0.10;99.90;;;;;;5043421;28;20030;-72
2024/01/12 02:29:00;;;;;;;53.25;17.45;;;0.10;99.90;;;;;;5043526;28;20036;-72
2024/01/12 02:31:26;;;;;;;61.70;17.08;;;0.10;99.90;;;;;;5043149;28;20490;-70
2024/01/12 02:33:52;;;;;;;46.72;17.30;;;0.10;99.90;;;;;;5043301;28;20029;-70
2024/01/12 02:36:17;;;;;;;60.67;17.10;;;0.10;99.90;;;;;;5044057;28;20083;-70
2024/01/12 02:38:50;;;;;;;55.30;17.23;;;0.10;99.90;;;;;;5041850;28;20028;-69
2024/01/12 02:41:16;;;;;;;51.17;17.40;;;0.00;99.90;;;;;;5043803;28;20100;-72
2024/01/12 02:43:42;;;;;;;78.32;17.02;;;-0.10;99.90;;;;;;5042105;28;20048;-69
2024/01/12 02:46:07;;;;;;;53.50;17.23;;;-0.10;99.90;;;;;;5038864;28;20036;-70
2024/01/12 02:48:35;;;;;;;75.45;16.45;;;-0.10;99.90;;;;;;5043061;28;20017;-69
2024/01/12 02:51:01;;;;;;;77.07;15.60;;;0.00;99.90;;;;;;5042776;28;20045;-70
2024/01/12 02:53:27;;;;;;;44.80;15.70;;;-0.10;99.90;;;;;;5041602;28;20045;-71
2024/01/12 02:55:52;;;;;;;82.65;16.90;;;-0.20;99.90;;;;;;5041310;28;20108;-71
2024/01/12 02:58:18;;;;;;;70.60;16.60;;;-0.20;99.90;;;;;;5043128;28;20030;-71
2024/01/12 03:00:44;;;;;;;37.05;15.32;;;-0.30;99.90;;;;;;5042805;28;20029;-72
2024/01/12 03:03:10;;;;;;;55.03;15.98;;;-0.30;99.90;;;;;;5042863;28;20053;-71
2024/01/12 03:05:35;;;;;;;49.55;15.27;;;-0.30;99.90;;;;;;5042678;28;21622;-71
2024/01/12 03:08:01;;;;;;;74.88;15.63;;;-0.30;99.90;;;;;;5040632;28;20033;-70
2024/01/12 03:10:27;;;;;;;58.03;15.48;;;-0.30;99.90;;;;;;5040996;28;20048;-72
2024/01/12 03:12:53;;;;;;;77.28;16.63;;;-0.30;99.90;;;;;;5042648;28;20056;-71
2024/01/12 03:15:19;;;;;;;127.70;16.40;;;-0.30;99.90;;;;;;5042982;28;20037;-72
2024/01/12 03:17:47;;;;;;;82.15;14.43;;;-0.20;99.90;;;;;;5041090;28;20079;-72
2024/01/12 03:20:13;;;;;;;62.75;15.60;;;-0.30;99.90;;;;;;5042516;28;20029;-71
2024/01/12 03:22:39;;;;;;;64.10;16.17;;;-0.30;99.90;;;;;;5042016;28;20036;-71
2024/01/12 03:25:05;;;;;;;47.80;15.43;;;-0.30;99.90;;;;;;5041260;28;20100;-72
2024/01/12 03:27:32;;;;;;;57.67;13.80;;;-0.30;99.90;;;;;;5042295;28;20093;-71
2024/01/12 03:29:57;;;;;;;60.70;14.60;;;-0.20;99.90;;;;;;5042478;28;20030;-72
2024/01/12 03:32:23;;;;;;;55.30;14.32;;;-0.20;99.90;;;;;;5042158;28;20068;-71
2024/01/12 03:34:49;;;;;;;56.33;14.10;;;-0.20;99.90;;;;;;5040565;28;20025;-70
2024/01/12 03:37:14;;;;;;;75.68;14.90;;;-0.10;99.90;;;;;;5042390;28;20083;-70
2024/01/12 03:39:40;;;;;;;47.15;14.18;;;-0.10;99.90;;;;;;5041096;28;20029;-72
2024/01/12 03:42:06;;;;;;;44.08;13.68;;;-0.10;99.90;;;;;;5041959;28;20025;-70
2024/01/12 03:44:31;;;;;;;52.92;15.25;;;-0.10;99.90;;;;;;5040521;28;20018;-70
2024/01/12 03:46:59;;;;;;;52.10;13.18;;;0.00;99.90;;;;;;5040733;28;20032;-72
2024/01/12 03:49:25;;;;;;;71.57;13.82;;;0.00;99.90;;;;;;5041518;28;20044;-70
2024/01/12 03:51:54;;;;;;;71.32;14.88;;;0.00;99.90;;;;;;5042192;28;20041;-72
2024/01/12 03:54:21;;;;;;;66.78;15.10;;;0.00;99.90;;;;;;5041580;28;20549;-73
2024/01/12 03:56:49;;;;;;;85.40;14.48;;;0.00;99.90;;;;;;5041584;28;20021;-71
2024/01/12 03:59:15;;;;;;;49.03;14.02;;;0.00;99.90;;;;;;5040127;28;20036;-72
2024/01/12 04:01:47;;;;;;;56.15;14.82;;;0.00;99.90;;;;;;5041735;28;20081;-72
2024/01/12 04:04:13;;;;;;;47.78;14.02;;;0.00;99.90;;;;;;5041419;28;20049;-72
2024/01/12 04:06:40;;;;;;;47.75;14.18;;;0.00;99.90;;;;;;5040902;28;20021;-71
2024/01/12 04:09:10;;;;;;;46.97;15.25;;;0.00;99.90;;;;;;5038768;28;20029;-71
2024/01/12 04:11:36;;;;;;;58.45;15.13;;;0.10;99.90;;;;;;5037064;28;20081;-70
2024/01/12 04:14:03;;;;;;;65.07;13.75;;;0.10;99.90;;;;;;5040239;28;20041;-70
2024/01/12 04:16:29;;;;;;;50.85;14.70;;;0.10;99.90;;;;;;5041263;28;20022;-71
2024/01/12 04:18:54;;;;;;;92.88;15.52;;;0.10;99.90;;;;;;5039778;28;20026;-71
2024/01/12 04:21:20;;;;;;;73.18;14.98;;;0.10;99.90;;;;;;5041584;28;20025;-70
2024/01/12 04:23:45;;;;;;;51.55;14.25;;;0.10;99.90;;;;;;5041395;28;20036;-71
2024/01/12 04:26:11;;;;;;;52.45;13.77;;;0.10;99.90;;;;;;5038603;28;20557;-73
2024/01/12 04:28:37;;;;;;;72.80;15.02;;;0.10;99.90;;;;;;5041849;28;20051;-71
2024/01/12 04:31:03;;;;;;;68.78;14.50;;;0.10;99.90;;;;;;5041772;28;20042;-71
2024/01/12 04:33:30;;;;;;;123.72;19.98;;;0.10;99.90;;;;;;5041704;28;20082;-72
2024/01/12 04:35:57;;;;;;;145.93;16.48;;;0.10;99.90;;;;;;5040254;28;20025;-72
2024/01/12 04:38:23;;;;;;;66.78;14.80;;;0.10;99.90;;;;;;5041622;28;20028;-73
2024/01/12 04:40:52;;;;;;;78.30;14.77;;;0.10;99.90;;;;;;5041635;28;20105;-73
2024/01/12 04:43:18;;;;;;;75.22;15.15;;;0.00;99.90;;;;;;5040107;28;20052;-70
2024/01/12 04:45:44;;;;;;;107.78;13.38;;;0.10;99.90;;;;;;5040438;28;20025;-70
2024/01/12 04:48:09;;;;;;;109.05;12.90;;;0.10;99.90;;;;;;5041915;28;20013;-71
2024/01/12 04:50:35;;;;;;;93.03;12.13;;;0.10;99.90;;;;;;5040429;28;20501;-69
2024/01/12 04:53:01;;;;;;;52.10;10.82;;;0.10;99.90;;;;;;5041525;28;20128;-70
2024/01/12 04:55:27;;;;;;;64.07;11.95;;;-0.10;99.90;;;;;;5040318;28;20459;-70
2024/01/12 04:57:53;;;;;;;87.50;12.35;;;-0.10;99.90;;;;;;5038122;28;20089;-73
2024/01/12 05:00:19;;;;;;;101.78;12.77;;;-0.10;99.90;;;;;;5041749;28;20021;-73
2024/01/12 05:02:45;;;;;;;119.60;12.05;;;-0.10;99.90;;;;;;5039283;28;20021;-72
2024/01/12 05:05:10;;;;;;;111.15;11.10;;;-0.20;99.90;;;;;;5041717;28;20017;-69
2024/01/12 05:07:36;;;;;;;72.63;9.38;;;-0.20;99.90;;;;;;5039082;28;20030;-70
2024/01/12 05:10:03;;;;;;;45.45;8.30;;;-0.30;99.90;;;;;;5041644;28;20068;-69
2024/01/12 05:12:29;;;;;;;53.70;8.55;;;-0.40;99.90;;;;;;5041375;28;20033;-69
2024/01/12 05:14:54;;;;;;;98.07;10.15;;;-0.50;99.90;;;;;;5041554;28;20057;-69
2024/01/12 05:17:20;;;;;;;65.13;8.63;;;-0.50;99.90;;;;;;5041617;28;20136;-72
2024/01/12 05:19:45;;;;;;;65.15;10.63;;;-0.50;99.90;;;;;;5042645;28;20033;-69
2024/01/12 05:22:11;;;;;;;115.90;11.18;;;-0.50;99.90;;;;;;5044987;28;20029;-69
2024/01/12 05:24:37;;;;;;;93.28;10.73;;;-0.60;99.90;;;;;;5044028;28;20026;-71
2024/01/12 05:27:03;;;;;;;78.90;10.30;;;-0.60;99.90;;;;;;5043104;28;20029;-69
2024/01/12 05:29:28;;;;;;;75.68;13.02;;;-0.60;99.90;;;;;;5043402;28;20030;-69
2024/01/12 05:31:54;;;;;;;86.22;12.43;;;-0.60;99.90;;;;;;5044409;28;20038;-69
2024/01/12 05:34:19;;;;;;;70.82;13.40;;;-0.60;99.90;;;;;;5044371;28;20060;-71
2024/01/12 05:36:45;;;;;;;85.97;13.30;;;-0.50;99.90;;;;;;5045443;28;20025;-70
2024/01/12 05:39:11;;;;;;;78.93;13.07;;;-0.50;99.90;;;;;;5041032;28;20038;-70
2024/01/12 05:41:36;;;;;;;95.53;13.40;;;-0.50;99.90;;;;;;5042779;28;20104;-70
2024/01/12 05:44:02;;;;;;;116.80;14.45;;;-0.50;99.90;;;;;;5043046;28;20025;-71
2024/01/12 05:46:28;;;;;;;63.17;12.30;;;-0.40;99.90;;;;;;5042196;28;20021;-71
2024/01/12 05:48:53;;;;;;;71.45;11.85;;;-0.30;99.90;;;;;;5042377;28;20092;-69
2024/01/12 05:51:19;;;;;;;96.53;13.90;;;-0.30;99.90;;;;;;5042590;28;20087;-71
2024/01/12 05:53:45;;;;;;;83.03;12.45;;;-0.20;99.90;;;;;;5041828;28;20128;-71
2024/01/12 05:56:11;;;;;;;86.38;12.90;;;-0.20;99.90;;;;;;5042675;28;20441;-72
2024/01/12 05:58:37;;;;;;;72.85;12.02;;;-0.10;99.90;;;;;;5042635;28;20025;-69
2024/01/12 06:01:02;;;;;;;110.38;12.40;;;-0.10;99.90;;;;;;5043096;28;20018;-69
2024/01/12 06:03:28;;;;;;;75.43;12.18;;;0.00;99.90;;;;;;5044261;28;20053;-70
2024/01/12 06:05:55;;;;;;;51.33;11.50;;;0.10;99.90;;;;;;5044497;28;20022;-71
2024/01/12 06:08:20;;;;;;;105.57;12.00;;;0.10;99.90;;;;;;5043655;28;20017;-70
2024/01/12 06:10:46;;;;;;;67.70;14.88;;;0.10;99.90;;;;;;5044754;28;20048;-69
2024/01/12 06:13:12;;;;;;;64.95;14.00;;;0.20;99.90;;;;;;5039750;28;20050;-71
2024/01/12 06:15:37;;;;;;;91.93;20.25;;;0.20;99.90;;;;;;5041821;28;20501;-70
2024/01/12 06:18:03;;;;;;;79.70;11.43;;;0.30;99.90;;;;;;5044380;28;20109;-71
2024/01/12 06:20:29;;;;;;;54.15;11.32;;;0.30;99.90;;;;;;5042020;28;20059;-70
2024/01/12 06:22:55;;;;;;;87.70;12.27;;;0.40;99.90;;;;;;5040335;28;20017;-70
2024/01/12 06:25:21;;;;;;;92.47;13.20;;;0.40;99.90;;;;;;5043641;28;20048;-70
2024/01/12 06:27:47;;;;;;;76.18;12.45;;;0.50;99.90;;;;;;5043736;28;20025;-71
2024/01/12 06:30:13;;;;;;;78.18;13.90;;;0.60;99.90;;;;;;5043005;28;20048;-71
2024/01/12 06:32:39;;;;;;;59.78;13.77;;;0.60;99.90;;;;;;5040953;28;20060;-70
2024/01/12 06:35:08;;;;;;;73.32;14.52;;;0.60;99.90;;;;;;5041101;28;20029;-70
2024/01/12 06:37:33;;;;;;;143.48;17.80;;;0.60;99.90;;;;;;5042581;28;20492;-72
2024/01/12 06:40:00;;;;;;;116.82;18.02;;;0.60;99.90;;;;;;5042771;28;20053;-70
2024/01/12 06:42:26;;;;;;;116.50;16.23;;;0.60;99.90;;;;;;5042004;28;20063;-72
2024/01/12 06:44:51;;;;;;;120.00;20.15;;;0.60;99.90;;;;;;5041209;28;20025;-70
2024/01/12 06:47:17;;;;;;;104.13;18.60;;;0.70;99.90;;;;;;5042494;28;20478;-71
2024/01/12 06:49:43;;;;;;;113.40;16.48;;;0.70;99.90;;;;;;5042674;28;20022;-70
2024/01/12 06:52:09;;;;;;;100.95;16.20;;;0.70;99.90;;;;;;5043654;28;20022;-70
2024/01/12 06:54:35;;;;;;;98.45;14.43;;;0.70;99.90;;;;;;5040581;28;20133;-71
2024/01/12 06:57:01;;;;;;;103.43;14.63;;;0.70;99.90;;;;;;5040531;28;20033;-71
2024/01/12 06:59:27;;;;;;;81.55;13.90;;;0.80;99.90;;;;;;5042032;28;20033;-70
2024/01/12 07:01:52;;;;;;;91.35;14.32;;;0.80;99.90;;;;;;5040762;28;20037;-69
2024/01/12 07:04:18;;;;;;;102.40;15.23;;;0.80;99.90;;;;;;5040524;28;20053;-70
2024/01/12 07:06:44;;;;;;;77.15;13.52;;;0.80;99.90;;;;;;5040159;28;20036;-72
2024/01/12 07:09:12;;;;;;;83.38;13.38;;;0.80;99.90;;;;;;5042055;28;20037;-69
2024/01/12 07:11:42;;;;;;;92.38;14.50;;;0.80;99.90;;;;;;5040239;28;20049;-69
2024/01/12 07:14:08;;;;;;;106.97;14.02;;;0.80;99.90;;;;;;5034617;28;20423;-70
2024/01/12 07:16:34;;;;;;;147.93;16.40;;;0.80;99.90;;;;;;5037190;28;20048;-70
2024/01/12 07:19:00;;;;;;;104.57;15.05;;;0.80;99.90;;;;;;5041416;28;20025;-71
2024/01/12 07:21:25;;;;;;;82.75;15.18;;;0.80;99.90;;;;;;5042374;28;20025;-71
2024/01/12 07:23:51;;;;;;;137.45;16.85;;;0.80;99.90;;;;;;5042707;28;20021;-70
2024/01/12 07:26:16;;;;;;;247.10;20.10;;;0.80;99.90;;;;;;5043030;28;20116;-70
2024/01/12 07:28:42;;;;;;;182.55;17.15;;;0.80;99.90;;;;;;5041185;28;20479;-67
2024/01/12 07:31:07;;;;;;;95.72;14.90;;;0.90;99.90;;;;;;5038961;28;20203;-71
2024/01/12 07:33:33;;;;;;;176.77;16.65;;;0.90;99.90;;;;;;5042137;28;20034;-70
2024/01/12 07:35:59;;;;;;;199.43;16.98;;;0.90;99.90;;;;;;5040759;28;20033;-70
2024/01/12 07:38:25;;;;;;;186.43;16.65;;;0.90;99.90;;;;;;5041227;28;20105;-69
2024/01/12 07:40:50;;;;;;;116.50;16.77;;;0.90;99.90;;;;;;5038383;28;20049;-70
2024/01/12 07:43:16;;;;;;;98.25;15.63;;;0.90;99.90;;;;;;5031673;28;20025;-70
2024/01/12 07:45:42;;;;;;;135.43;15.02;;;1.00;99.90;;;;;;5038404;28;20081;-70
2024/01/12 07:48:07;;;;;;;118.90;16.25;;;1.00;99.90;;;;;;5040375;28;20033;-70
2024/01/12 07:50:33;;;;;;;196.82;17.77;;;1.00;99.90;;;;;;5040393;28;20021;-69
2024/01/12 07:52:59;;;;;;;124.90;16.73;;;1.10;99.90;;;;;;5038107;28;20038;-72
2024/01/12 07:55:26;;;;;;;93.15;16.20;;;1.10;99.90;;;;;;5039682;28;20025;-70
2024/01/12 07:57:52;;;;;;;188.23;17.55;;;1.10;99.90;;;;;;5041855;28;20072;-71
2024/01/12 08:00:18;;;;;;;143.05;15.95;;;1.10;99.90;;;;;;5039885;28;20025;-72
2024/01/12 08:02:43;;;;;;;130.18;16.67;;;1.10;99.90;;;;;;5041032;28;20025;-70
2024/01/12 08:05:09;;;;;;;125.88;18.77;;;1.20;99.90;;;;;;5036641;28;20051;-71
2024/01/12 08:07:38;;;;;;;161.50;20.80;;;1.20;99.90;;;;;;5037820;28;20048;-69
2024/01/12 08:10:06;;;;;;;144.02;18.92;;;1.20;99.90;;;;;;5039201;28;20040;-70
2024/01/12 08:12:32;;;;;;;143.82;16.60;;;1.30;99.90;;;;;;5039069;28;20064;-71
2024/01/12 08:14:58;;;;;;;243.35;40.90;;;1.20;99.90;;;;;;5040759;28;20026;-69
2024/01/12 08:17:24;;;;;;;113.68;22.00;;;1.30;99.90;;;;;;5040020;28;20495;-70
2024/01/12 08:19:49;;;;;;;111.30;22.55;;;1.30;99.90;;;;;;5041894;28;20030;-69
2024/01/12 08:22:15;;;;;;;105.43;16.77;;;1.30;99.90;;;;;;5040416;28;20021;-70
2024/01/12 08:24:42;;;;;;;133.07;15.45;;;1.30;99.90;;;;;;5039321;28;20049;-70
2024/01/12 08:27:07;;;;;;;91.50;16.73;;;1.40;99.90;;;;;;5039896;28;20024;-68
2024/01/12 08:29:33;;;;;;;121.60;16.90;;;1.40;99.90;;;;;;5038925;28;20041;-68
2024/01/12 08:31:59;;;;;;;98.57;15.00;;;1.40;99.90;;;;;;5037890;28;20121;-69
2024/01/12 08:34:25;;;;;;;60.35;15.93;;;1.40;99.90;;;;;;5039963;28;20065;-69
2024/01/12 08:36:51;;;;;;;62.47;15.98;;;1.40;99.90;;;;;;5040917;28;20089;-67
2024/01/12 08:39:17;;;;;;;55.78;15.88;;;1.40;99.90;;;;;;5040496;28;20065;-71
2024/01/12 08:41:43;;;;;;;63.65;16.15;;;1.60;99.90;;;;;;5039540;28;20029;-68
2024/01/12 08:44:11;;;;;;;52.40;15.93;;;1.50;99.90;;;;;;5041953;28;20101;-69
2024/01/12 08:46:37;;;;;;;47.83;15.30;;;1.50;99.90;;;;;;5041315;28;20051;-69
2024/01/12 08:49:02;;;;;;;53.15;15.00;;;1.50;99.90;;;;;;5042273;28;20087;-69
2024/01/12 08:51:28;;;;;;;46.85;15.00;;;1.50;99.90;;;;;;5041751;28;20033;-69
2024/01/12 08:53:54;;;;;;;42.63;13.98;;;1.50;99.90;;;;;;5041750;28;20053;-70
2024/01/12 08:56:19;;;;;;;45.35;15.27;;;1.60;99.90;;;;;;5046252;28;20041;-70
2024/01/12 08:58:45;;;;;;;51.08;14.68;;;1.60;99.90;;;;;;5046105;28;20105;-69
2024/01/12 09:01:12;;;;;;;50.25;16.65;;;1.50;99.90;;;;;;5045827;28;20509;-69
2024/01/12 09:03:38;;;;;;;37.50;13.63;;;1.60;99.90;;;;;;5045232;28;20907;-70
2024/01/12 09:06:04;;;;;;;47.08;15.02;;;1.50;99.90;;;;;;5045822;28;20032;-68
2024/01/12 09:08:30;;;;;;;68.93;16.67;;;1.50;99.90;;;;;;5043805;28;20036;-69
2024/01/12 09:10:55;;;;;;;55.20;15.27;;;1.60;99.90;;;;;;5045263;28;20056;-69
2024/01/12 09:13:21;;;;;;;53.45;16.13;;;1.60;99.90;;;;;;5041911;28;20037;-70
2024/01/12 09:15:46;;;;;;;49.38;16.00;;;1.70;99.90;;;;;;5041170;28;20032;-70
2024/01/12 09:18:12;;;;;;;52.60;15.98;;;1.70;99.90;;;;;;5043857;28;20085;-69
2024/01/12 09:20:37;;;;;;;52.20;16.20;;;1.70;99.90;;;;;;5041825;28;20143;-69
2024/01/12 09:23:03;;;;;;;43.95;16.00;;;1.70;99.90;;;;;;5039927;28;20034;-71
2024/01/12 09:25:28;;;;;;;49.97;16.20;;;1.70;99.90;;;;;;5036831;28;20022;-68
2024/01/12 09:27:57;;;;;;;49.28;15.52;;;1.70;99.90;;;;;;5043256;28;20040;-67
2024/01/12 09:30:22;;;;;;;50.28;16.38;;;1.70;99.90;;;;;;5043000;28;20113;-68
2024/01/12 09:32:48;;;;;;;54.00;17.60;;;1.70;99.90;;;;;;5042791;28;20080;-67
2024/01/12 09:35:14;;;;;;;51.08;17.90;;;1.80;99.90;;;;;;5043170;28;20025;-67
2024/01/12 09:37:39;;;;;;;54.03;17.05;;;1.80;99.90;;;;;;5042143;28;20076;-68
2024/01/12 09:40:06;;;;;;;62.15;17.67;;;1.80;99.90;;;;;;5036965;28;20034;-68
2024/01/12 09:42:33;;;;;;;52.03;16.70;;;1.80;99.90;;;;;;5028343;28;20037;-68
2024/01/12 09:45:02;;;;;;;50.25;16.65;;;1.90;99.90;;;;;;5035462;28;20029;-68
2024/01/12 09:47:27;;;;;;;50.10;16.45;;;1.90;99.90;;;;;;5037916;28;20101;-67
2024/01/12 09:49:54;;;;;;;56.88;17.15;;;2.00;99.90;;;;;;5042937;28;20029;-70
2024/01/12 09:52:20;;;;;;;46.15;16.15;;;2.00;99.90;;;;;;5040572;28;20100;-69
2024/01/12 09:54:46;;;;;;;54.95;16.10;;;2.00;99.90;;;;;;5041133;28;20087;-68
2024/01/12 09:57:12;;;;;;;52.85;16.15;;;2.10;99.90;;;;;;5040714;28;20067;-69
2024/01/12 09:59:38;;;;;;;55.67;16.50;;;2.10;99.90;;;;;;5040574;28;20022;-68
2024/01/12 10:02:15;;;;;;;57.83;17.50;;;2.10;99.90;;;;;;5038344;28;20666;-68
2024/01/12 10:04:41;;;;;;;53.65;16.75;;;2.20;99.90;;;;;;5042058;28;20058;-68
2024/01/12 10:07:07;;;;;;;51.72;16.92;;;2.20;99.90;;;;;;5042798;28;20022;-67
2024/01/12 10:09:32;;;;;;;54.38;18.30;;;2.30;99.90;;;;;;5039270;28;20026;-68
2024/01/12 10:11:59;;;;;;;60.58;19.15;;;2.30;99.90;;;;;;5039410;28;20018;-70
2024/01/12 10:14:25;;;;;;;65.50;19.10;;;2.30;99.90;;;;;;5040444;28;20033;-66
2024/01/12 10:16:55;;;;;;;70.22;18.35;;;2.30;99.90;;;;;;5043678;28;20393;-68
2024/01/12 10:19:21;;;;;;;57.92;19.33;;;2.30;99.90;;;;;;5041107;28;20025;-67
2024/01/12 10:21:47;;;;;;;53.45;18.42;;;2.30;99.90;;;;;;5038617;28;20040;-68
2024/01/12 10:24:16;;;;;;;58.85;18.17;;;2.20;99.90;;;;;;5035865;28;20025;-66
2024/01/12 10:26:42;;;;;;;56.60;18.33;;;2.30;99.90;;;;;;5037626;28;20039;-66
2024/01/12 10:29:08;;;;;;;58.80;18.38;;;2.30;99.90;;;;;;5039825;28;20116;-68
2024/01/12 10:31:39;;;;;;;57.35;18.98;;;2.30;99.90;;;;;;5039350;28;20034;-66
2024/01/12 10:34:08;;;;;;;58.00;18.42;;;2.30;99.90;;;;;;5043015;28;20037;-65
2024/01/12 10:36:36;;;;;;;65.13;19.35;;;2.40;99.90;;;;;;5040956;28;21596;-67
2024/01/12 10:39:03;;;;;;;59.83;19.48;;;2.40;99.90;;;;;;5032222;28;20021;-68
2024/01/12 10:41:32;;;;;;;61.33;20.42;;;2.50;99.90;;;;;;5039753;28;20040;-68
2024/01/12 10:44:03;;;;;;;61.65;20.90;;;2.50;99.90;;;;;;5036598;28;20044;-67
2024/01/12 10:46:47;;;;;;;65.78;24.25;;;2.60;99.90;;;;;;5040324;28;20036;-66
2024/01/12 10:49:15;;;;;;;70.25;20.85;;;2.60;99.90;;;;;;5039348;28;20037;-66
2024/01/12 10:51:46;;;;;;;60.63;21.02;;;2.70;99.90;;;;;;5038594;28;20088;-67
2024/01/12 10:54:24;;;;;;;63.65;20.67;;;2.70;99.90;;;;;;5037184;28;20406;-67
2024/01/12 10:56:51;;;;;;;64.40;21.05;;;2.70;99.90;;;;;;5037849;28;20037;-67
2024/01/12 10:59:18;;;;;;;70.80;21.30;;;2.70;99.90;;;;;;5036553;28;20025;-69
2024/01/12 11:01:45;;;;;;;58.58;19.75;;;2.70;99.90;;;;;;5037294;28;20021;-67
2024/01/12 11:04:12;;;;;;;67.22;20.13;;;2.80;99.90;;;;;;5036471;28;20117;-67
2024/01/12 11:06:39;;;;;;;60.65;20.02;;;2.80;99.90;;;;;;5038705;28;20071;-68
2024/01/12 11:09:07;;;;;;;66.50;21.25;;;2.80;99.90;;;;;;5037997;28;20049;-69
2024/01/12 11:11:43;;;;;;;56.97;19.33;;;2.90;99.90;;;;;;5037935;28;20486;-69
2024/01/12 11:14:10;;;;;;;56.42;20.23;;;2.90;99.90;;;;;;5041949;28;20037;-69
2024/01/12 11:16:35;;;;;;;59.40;18.90;;;2.90;99.90;;;;;;5038140;28;20509;-68
2024/01/12 11:19:01;;;;;;;58.83;20.08;;;2.90;99.90;;;;;;5036492;28;20033;-69
2024/01/12 11:21:27;;;;;;;53.35;19.77;;;3.00;99.90;;;;;;5041926;28;20036;-68
2024/01/12 11:23:53;;;;;;;60.50;19.98;;;3.00;99.90;;;;;;5038421;28;20030;-68
2024/01/12 11:26:20;;;;;;;58.70;19.60;;;3.00;99.90;;;;;;5033416;28;20047;-68
2024/01/12 11:28:47;;;;;;;65.35;19.88;;;3.00;99.90;;;;;;5035900;28;20067;-68
2024/01/12 11:31:24;;;;;;;60.80;19.13;;;3.00;99.90;;;;;;5040700;28;20018;-68
2024/01/12 11:33:57;;;;;;;56.40;18.90;;;3.10;99.90;;;;;;5030434;28;20029;-68
2024/01/12 11:36:27;;;;;;;56.10;19.65;;;3.10;99.90;;;;;;5034261;28;20089;-67
2024/01/12 11:38:55;;;;;;;65.38;22.65;;;3.10;99.90;;;;;;5039809;28;20132;-69
2024/01/12 11:41:29;;;;;;;74.38;21.50;;;3.10;99.90;;;;;;5040245;28;20033;-68
2024/01/12 11:43:55;;;;;;;;;;;3.10;99.90;;;;;;5037531;28;20403;-68
2024/01/12 11:46:23;;;;;;;50.97;19.10;;;3.10;99.90;;;;;;5036819;28;19905;-68
2024/01/12 11:48:50;;;;;;;57.88;19.40;;;3.10;99.90;;;;;;5036372;28;20025;-68
2024/01/12 11:51:29;;;;;;;61.17;20.00;;;3.20;99.90;;;;;;5034595;28;20021;-69
2024/01/12 11:53:58;;;;;;;49.88;18.77;;;3.20;99.90;;;;;;5036518;28;20044;-67
2024/01/12 11:56:26;;;;;;;52.35;19.08;;;3.20;99.90;;;;;;5042374;28;20123;-67
2024/01/12 11:58:54;;;;;;;61.35;19.63;;;3.20;99.90;;;;;;5033812;28;20052;-67
2024/01/12 12:01:21;;;;;;;57.67;19.63;;;3.20;99.90;;;;;;5036759;28;20026;-69
2024/01/12 12:03:49;;;;;;;65.10;20.05;;;3.20;99.90;;;;;;5039913;28;20065;-68
2024/01/12 12:06:14;;;;;;;70.72;23.48;;;3.20;99.90;;;;;;5040245;28;20493;-67
2024/01/12 12:08:40;;;;;;;73.32;23.15;;;3.30;99.90;;;;;;5035929;28;20030;-66
2024/01/12 12:11:06;;;;;;;69.13;21.77;;;3.30;99.90;;;;;;5040880;28;20033;-67
2024/01/12 12:13:37;;;;;;;58.10;21.33;;;3.30;99.90;;;;;;5037861;28;20071;-68
2024/01/12 12:16:03;;;;;;;55.65;19.02;;;3.40;99.90;;;;;;5040728;28;20017;-66
2024/01/12 12:18:30;;;;;;;57.83;20.27;;;3.30;99.90;;;;;;5038824;28;20071;-67
2024/01/12 12:20:56;;;;;;;61.88;20.00;;;3.40;99.90;;;;;;5040860;28;21034;-67
2024/01/12 12:23:22;;;;;;;71.07;22.05;;;3.40;99.90;;;;;;5037971;28;20048;-69
2024/01/12 12:25:49;;;;;;;55.17;20.52;;;3.40;99.90;;;;;;5041515;28;20084;-67
2024/01/12 12:28:15;;;;;;;49.67;18.38;;;3.40;99.90;;;;;;5041561;28;20075;-69